Time;durP1;ratioP1;P1;durP2;ratioP2;P2;SDS_P1;SDS_P2;PMS_P1;PMS_P2;Temp;Humidity;BMP_temperature;BMP_pressure;BME280_temperature;BME280_humidity;BME280_pressure;Samples;Min_cycle;Max_cycle;Signal;HPM_P1;HPM_P2
2021/10/23 00:00:42;;;;;;;13.32;1.77;;;5.80;99.90;;;;;;5098386;28;20055;-67
2021/10/23 00:03:08;;;;;;;15.50;1.33;;;5.90;99.90;;;;;;5096948;28;20067;-67
2021/10/23 00:05:34;;;;;;;13.43;1.42;;;5.90;99.90;;;;;;5096760;28;20534;-67
2021/10/23 00:08:00;;;;;;;12.45;1.50;;;5.90;99.90;;;;;;5094521;28;20131;-67
2021/10/23 00:10:26;;;;;;;13.43;1.35;;;5.90;99.90;;;;;;5097948;28;20126;-66
2021/10/23 00:12:52;;;;;;;8.15;1.05;;;5.90;99.90;;;;;;5097255;28;20031;-66
2021/10/23 00:15:18;;;;;;;10.23;1.48;;;5.80;99.90;;;;;;5093338;28;20039;-67
2021/10/23 00:17:43;;;;;;;9.15;1.25;;;5.80;99.90;;;;;;5096771;27;20043;-66
2021/10/23 00:20:09;;;;;;;8.63;1.23;;;5.80;99.90;;;;;;5095530;28;20559;-66
2021/10/23 00:22:35;;;;;;;9.00;1.23;;;5.80;99.90;;;;;;5094454;28;20044;-66
2021/10/23 00:25:01;;;;;;;8.38;1.48;;;5.80;99.90;;;;;;5094353;28;20044;-66
2021/10/23 00:27:28;;;;;;;8.48;1.27;;;5.80;99.90;;;;;;5094850;28;20477;-66
2021/10/23 00:29:53;;;;;;;9.50;1.13;;;5.80;99.90;;;;;;5094521;28;20047;-67
2021/10/23 00:32:19;;;;;;;8.38;1.00;;;5.80;99.90;;;;;;5076504;28;20102;-67
2021/10/23 00:34:45;;;;;;;11.70;1.35;;;5.80;99.90;;;;;;5097942;27;20406;-67
2021/10/23 00:37:11;;;;;;;12.20;1.58;;;5.90;99.90;;;;;;5095343;28;20045;-67
2021/10/23 00:39:36;;;;;;;13.82;1.27;;;5.90;99.90;;;;;;5097586;28;20055;-66
2021/10/23 00:42:03;;;;;;;5.70;0.90;;;5.90;99.90;;;;;;5093199;28;20175;-66
2021/10/23 00:44:36;;;;;;;11.35;1.35;;;5.90;99.90;;;;;;5092841;28;20508;-66
2021/10/23 00:47:03;;;;;;;7.65;0.93;;;5.90;99.90;;;;;;5096432;28;20162;-66
2021/10/23 00:49:29;;;;;;;10.07;0.98;;;5.80;99.90;;;;;;5094789;27;20044;-67
2021/10/23 00:51:57;;;;;;;9.57;1.00;;;5.70;99.90;;;;;;5100516;27;20024;-67
2021/10/23 00:54:24;;;;;;;9.32;0.75;;;5.80;99.90;;;;;;5094609;28;23000;-67
2021/10/23 00:56:50;;;;;;;6.90;0.75;;;5.70;99.90;;;;;;5092528;28;20048;-67
2021/10/23 00:59:15;;;;;;;8.13;1.00;;;5.70;99.90;;;;;;5111324;27;20171;-67
2021/10/23 01:01:41;;;;;;;8.20;0.85;;;5.80;99.90;;;;;;5094841;28;20090;-67
2021/10/23 01:04:07;;;;;;;8.80;1.77;;;5.80;99.90;;;;;;5125522;27;20036;-67
2021/10/23 01:06:34;;;;;;;17.38;1.73;;;5.90;99.90;;;;;;5098923;28;20578;-67
2021/10/23 01:08:59;;;;;;;9.85;1.17;;;5.90;99.90;;;;;;5093467;28;20069;-67
2021/10/23 01:11:27;;;;;;;7.82;0.85;;;6.00;99.90;;;;;;5095919;28;20481;-67
2021/10/23 01:13:53;;;;;;;10.10;1.10;;;6.10;99.90;;;;;;5096961;28;20066;-66
2021/10/23 01:16:18;;;;;;;6.60;0.73;;;6.10;99.90;;;;;;5095110;28;20474;-67
2021/10/23 01:18:44;;;;;;;11.40;1.88;;;6.20;99.90;;;;;;5099248;28;20047;-66
2021/10/23 01:21:10;;;;;;;7.25;1.10;;;6.30;99.90;;;;;;5096456;28;20066;-67
2021/10/23 01:23:36;;;;;;;8.40;0.68;;;6.30;99.90;;;;;;5094684;28;20547;-66
2021/10/23 01:26:02;;;;;;;9.13;1.48;;;6.30;99.90;;;;;;5096837;28;20039;-66
2021/10/23 01:28:28;;;;;;;12.38;0.95;;;6.30;99.90;;;;;;5095820;28;20404;-66
2021/10/23 01:30:57;;;;;;;8.82;1.33;;;6.30;99.90;;;;;;5096483;28;20036;-67
2021/10/23 01:33:23;;;;;;;9.93;1.17;;;6.30;99.90;;;;;;5095732;28;20031;-67
2021/10/23 01:35:49;;;;;;;4.53;0.88;;;6.40;99.90;;;;;;5097199;28;20286;-67
2021/10/23 01:38:14;;;;;;;9.63;0.88;;;6.40;99.90;;;;;;5098626;28;20036;-67
2021/10/23 01:40:40;;;;;;;7.15;1.23;;;6.40;99.90;;;;;;5094725;28;22532;-67
2021/10/23 01:43:06;;;;;;;8.63;0.80;;;6.50;99.90;;;;;;5096421;28;20035;-67
2021/10/23 01:45:33;;;;;;;8.38;1.33;;;6.40;99.90;;;;;;5100524;28;20096;-67
2021/10/23 01:47:59;;;;;;;12.90;1.90;;;6.40;99.90;;;;;;5104117;28;20051;-67
2021/10/23 01:50:26;;;;;;;8.50;1.10;;;6.40;99.90;;;;;;5101015;28;20039;-66
2021/10/23 01:52:53;;;;;;;6.60;1.02;;;6.50;99.90;;;;;;5098081;28;20039;-67
2021/10/23 01:55:20;;;;;;;10.38;1.35;;;6.50;99.90;;;;;;5099801;28;20043;-66
2021/10/23 01:57:46;;;;;;;8.75;0.90;;;6.50;99.90;;;;;;5098330;28;20042;-67
2021/10/23 02:00:14;;;;;;;7.40;0.80;;;6.50;99.90;;;;;;5099929;28;20031;-67
2021/10/23 02:02:41;;;;;;;11.05;0.70;;;6.50;99.90;;;;;;5097449;28;20047;-67
2021/10/23 02:05:07;;;;;;;6.43;0.82;;;6.60;99.90;;;;;;5098091;28;20483;-66
2021/10/23 02:07:33;;;;;;;6.78;0.70;;;6.60;99.90;;;;;;5101262;28;20039;-66
2021/10/23 02:09:59;;;;;;;10.52;1.23;;;6.60;99.90;;;;;;5098602;28;20036;-67
2021/10/23 02:12:25;;;;;;;7.05;0.93;;;6.60;99.90;;;;;;5098978;28;20031;-66
2021/10/23 02:14:51;;;;;;;8.35;1.02;;;6.70;99.90;;;;;;5097837;28;21466;-67
2021/10/23 02:17:17;;;;;;;7.97;1.38;;;6.60;99.90;;;;;;5097504;28;20036;-66
2021/10/23 02:19:42;;;;;;;11.38;1.10;;;6.70;99.90;;;;;;5098242;28;20039;-66
2021/10/23 02:22:08;;;;;;;8.02;1.02;;;6.70;99.90;;;;;;5099745;28;20645;-67
2021/10/23 02:24:33;;;;;;;9.45;1.10;;;6.70;99.90;;;;;;5129378;27;20046;-66
2021/10/23 02:26:59;;;;;;;10.10;1.10;;;6.70;99.90;;;;;;5097052;28;20497;-66
2021/10/23 02:29:25;;;;;;;6.15;1.02;;;6.70;99.90;;;;;;5096248;28;20397;-67
2021/10/23 02:31:51;;;;;;;7.78;1.27;;;6.70;99.90;;;;;;5104899;27;20032;-66
2021/10/23 02:34:18;;;;;;;10.88;1.52;;;6.60;99.90;;;;;;5108580;27;20024;-66
2021/10/23 02:36:44;;;;;;;6.85;1.15;;;6.60;99.90;;;;;;5103123;27;20044;-66
2021/10/23 02:39:09;;;;;;;10.20;0.95;;;6.70;99.90;;;;;;5106527;28;20040;-66
2021/10/23 02:41:35;;;;;;;6.32;0.77;;;6.60;99.90;;;;;;5105204;27;20047;-66
2021/10/23 02:44:00;;;;;;;11.93;0.93;;;6.70;99.90;;;;;;5104749;28;20054;-66
2021/10/23 02:46:26;;;;;;;10.55;0.65;;;6.60;99.90;;;;;;5104179;27;20075;-67
2021/10/23 02:48:52;;;;;;;16.92;1.58;;;6.70;99.90;;;;;;5102224;27;20043;-67
2021/10/23 02:51:18;;;;;;;11.18;0.77;;;6.70;99.90;;;;;;5104864;28;20063;-66
2021/10/23 02:53:43;;;;;;;8.48;1.13;;;6.70;99.90;;;;;;5106459;27;20036;-66
2021/10/23 02:56:09;;;;;;;9.38;0.98;;;6.70;99.90;;;;;;5104214;28;20662;-66
2021/10/23 02:58:35;;;;;;;7.20;0.93;;;6.80;99.90;;;;;;5103621;28;20124;-67
2021/10/23 03:01:01;;;;;;;9.70;0.65;;;6.70;99.90;;;;;;5104471;27;20039;-67
2021/10/23 03:03:27;;;;;;;9.25;0.85;;;6.70;99.90;;;;;;5105240;28;20040;-66
2021/10/23 03:05:52;;;;;;;10.95;1.30;;;6.70;99.90;;;;;;5102655;28;20047;-67
2021/10/23 03:08:18;;;;;;;5.72;0.80;;;6.70;99.90;;;;;;5101935;28;20044;-67
2021/10/23 03:10:43;;;;;;;10.07;0.75;;;6.60;99.90;;;;;;5133390;27;20043;-67
2021/10/23 03:13:09;;;;;;;10.45;0.98;;;6.50;99.90;;;;;;5103833;27;20039;-66
2021/10/23 03:15:35;;;;;;;6.40;0.70;;;6.50;99.90;;;;;;5100952;27;20032;-66
2021/10/23 03:18:01;;;;;;;8.77;1.30;;;6.40;99.90;;;;;;5105050;28;20032;-66
2021/10/23 03:20:26;;;;;;;5.75;0.63;;;6.40;99.90;;;;;;5101546;28;20048;-66
2021/10/23 03:22:52;;;;;;;6.00;1.25;;;6.40;99.90;;;;;;5103140;28;20286;-66
2021/10/23 03:25:18;;;;;;;7.60;0.80;;;6.30;99.90;;;;;;5105671;27;20043;-67
2021/10/23 03:27:44;;;;;;;6.40;0.93;;;6.30;99.90;;;;;;5106141;27;20603;-67
2021/10/23 03:30:10;;;;;;;5.53;0.52;;;6.20;99.90;;;;;;5104859;28;20110;-66
2021/10/23 03:32:36;;;;;;;9.82;0.95;;;6.20;99.90;;;;;;5103397;27;20051;-67
2021/10/23 03:35:03;;;;;;;7.03;0.80;;;6.20;99.90;;;;;;5103404;28;20039;-66
2021/10/23 03:37:33;;;;;;;8.75;0.80;;;6.10;99.90;;;;;;5101121;28;20111;-66
2021/10/23 03:40:00;;;;;;;4.05;0.45;;;6.10;99.90;;;;;;5100256;28;20073;-67
2021/10/23 03:42:26;;;;;;;5.15;0.60;;;6.10;99.90;;;;;;5103609;27;20051;-66
2021/10/23 03:44:52;;;;;;;9.40;0.90;;;6.20;99.90;;;;;;5101684;27;20478;-66
2021/10/23 03:47:18;;;;;;;7.45;1.08;;;6.20;99.90;;;;;;5101728;27;20040;-66
2021/10/23 03:49:44;;;;;;;9.02;0.85;;;6.20;99.90;;;;;;5104825;28;20050;-66
2021/10/23 03:52:10;;;;;;;5.72;0.75;;;6.30;99.90;;;;;;5103711;27;20093;-66
2021/10/23 03:54:36;;;;;;;13.43;1.02;;;6.40;99.90;;;;;;5102982;27;20509;-66
2021/10/23 03:57:04;;;;;;;10.55;0.80;;;6.40;99.90;;;;;;5106366;27;20036;-66
2021/10/23 03:59:30;;;;;;;7.43;0.70;;;6.40;99.90;;;;;;5129367;27;20068;-66
2021/10/23 04:01:55;;;;;;;9.27;0.80;;;6.30;99.90;;;;;;5107390;27;20507;-66
2021/10/23 04:04:21;;;;;;;9.75;0.90;;;6.40;99.90;;;;;;5102604;28;20044;-66
2021/10/23 04:06:48;;;;;;;7.28;0.88;;;6.40;99.90;;;;;;5107437;28;20417;-67
2021/10/23 04:09:14;;;;;;;7.03;0.73;;;6.50;99.90;;;;;;5101701;27;20052;-67
2021/10/23 04:11:39;;;;;;;11.52;1.35;;;6.50;99.90;;;;;;5103336;27;20126;-66
2021/10/23 04:14:05;;;;;;;3.90;0.50;;;6.50;99.90;;;;;;5100427;28;20097;-66
2021/10/23 04:16:31;;;;;;;6.25;1.13;;;6.50;99.90;;;;;;5104449;28;20074;-67
2021/10/23 04:18:56;;;;;;;6.80;0.90;;;6.50;99.90;;;;;;5104677;28;20039;-67
2021/10/23 04:21:22;;;;;;;6.65;0.90;;;6.50;99.90;;;;;;5103583;28;20039;-67
2021/10/23 04:23:47;;;;;;;9.38;1.20;;;6.50;99.90;;;;;;5105175;28;20036;-67
2021/10/23 04:26:13;;;;;;;8.35;1.10;;;6.50;99.90;;;;;;5105857;28;20039;-67
2021/10/23 04:28:39;;;;;;;7.97;1.13;;;6.50;99.90;;;;;;5102106;28;20075;-67
2021/10/23 04:31:04;;;;;;;8.85;1.10;;;7.30;99.90;;;;;;5108369;27;20084;-67
2021/10/23 04:33:30;;;;;;;13.82;1.00;;;6.50;99.90;;;;;;5102639;27;20089;-67
2021/10/23 04:35:55;;;;;;;11.82;1.00;;;6.40;99.90;;;;;;5102501;27;20032;-67
2021/10/23 04:38:21;;;;;;;5.10;0.60;;;6.40;99.90;;;;;;5100676;28;20076;-67
2021/10/23 04:40:47;;;;;;;5.32;1.10;;;6.30;99.90;;;;;;5102230;27;20040;-67
2021/10/23 04:43:12;;;;;;;9.88;0.82;;;6.30;99.90;;;;;;5100558;28;20047;-66
2021/10/23 04:45:39;;;;;;;5.40;0.80;;;6.30;99.90;;;;;;5104168;28;20039;-66
2021/10/23 04:48:06;;;;;;;5.30;0.85;;;6.30;99.90;;;;;;5100848;28;20044;-66
2021/10/23 04:50:31;;;;;;;11.40;1.65;;;6.20;99.90;;;;;;5103002;28;20507;-66
2021/10/23 04:52:57;;;;;;;12.98;1.05;;;6.20;99.90;;;;;;5102561;27;20043;-66
2021/10/23 04:55:23;;;;;;;6.07;0.70;;;6.10;99.90;;;;;;5098636;28;20481;-66
2021/10/23 04:57:48;;;;;;;4.78;0.80;;;6.10;99.90;;;;;;5102283;28;20051;-66
2021/10/23 05:00:14;;;;;;;5.13;0.70;;;6.00;99.90;;;;;;5099605;28;20067;-66
2021/10/23 05:02:40;;;;;;;5.93;0.93;;;6.10;99.90;;;;;;5084888;28;20063;-66
2021/10/23 05:05:05;;;;;;;7.78;0.50;;;6.00;99.90;;;;;;5107923;27;20043;-66
2021/10/23 05:07:31;;;;;;;6.63;0.80;;;5.90;99.90;;;;;;5100702;28;20036;-66
2021/10/23 05:09:57;;;;;;;6.65;0.60;;;5.90;99.90;;;;;;5101670;28;20043;-66
2021/10/23 05:12:23;;;;;;;7.03;0.70;;;5.80;99.90;;;;;;5104323;28;20031;-66
2021/10/23 05:14:48;;;;;;;6.65;0.40;;;5.80;99.90;;;;;;5101570;28;20047;-66
2021/10/23 05:17:14;;;;;;;4.70;0.70;;;5.70;99.90;;;;;;5097302;28;20443;-66
2021/10/23 05:19:39;;;;;;;9.20;1.27;;;5.60;99.90;;;;;;5094005;28;20044;-67
2021/10/23 05:22:05;;;;;;;5.38;0.50;;;5.60;99.90;;;;;;5097017;28;20043;-67
2021/10/23 05:24:31;;;;;;;4.97;0.70;;;5.50;99.90;;;;;;5098319;28;20040;-66
2021/10/23 05:26:56;;;;;;;6.43;1.13;;;5.50;99.90;;;;;;5096495;28;20039;-66
2021/10/23 05:29:22;;;;;;;2.13;0.60;;;5.50;99.90;;;;;;5095049;28;20155;-67
2021/10/23 05:31:47;;;;;;;8.73;1.08;;;5.50;99.90;;;;;;5094780;28;20042;-67
2021/10/23 05:34:13;;;;;;;6.78;0.73;;;5.40;99.90;;;;;;5098578;28;20043;-67
2021/10/23 05:36:38;;;;;;;9.77;1.98;;;5.40;99.90;;;;;;5095284;28;20047;-67
2021/10/23 05:39:04;;;;;;;9.48;1.38;;;5.50;99.90;;;;;;5096220;28;20101;-67
2021/10/23 05:41:30;;;;;;;14.15;1.92;;;5.50;99.90;;;;;;5077551;28;20067;-67
2021/10/23 05:43:56;;;;;;;7.50;1.80;;;5.50;99.90;;;;;;5093779;28;20063;-66
2021/10/23 05:46:21;;;;;;;8.68;1.55;;;5.50;99.90;;;;;;5095795;28;20458;-67
2021/10/23 05:48:47;;;;;;;6.70;1.10;;;5.50;99.90;;;;;;5095132;28;20042;-67
2021/10/23 05:51:12;;;;;;;6.43;1.45;;;5.60;99.90;;;;;;5106363;28;20065;-66
2021/10/23 05:53:38;;;;;;;8.50;2.22;;;5.60;99.90;;;;;;5094890;28;20566;-67
2021/10/23 05:56:04;;;;;;;11.43;1.80;;;5.60;99.90;;;;;;5095077;28;20101;-66
2021/10/23 05:58:30;;;;;;;9.32;1.25;;;5.60;99.90;;;;;;5093486;28;20036;-66
2021/10/23 06:01:05;;;;;;;9.05;1.23;;;5.50;99.90;;;;;;5093451;28;20134;-67
2021/10/23 06:03:33;;;;;;;9.07;1.20;;;5.60;99.90;;;;;;5094385;28;20469;-66
2021/10/23 06:06:00;;;;;;;7.05;1.55;;;5.70;99.90;;;;;;5092161;28;20039;-67
2021/10/23 06:08:25;;;;;;;10.35;1.40;;;5.70;99.90;;;;;;5092329;28;20032;-67
2021/10/23 06:10:51;;;;;;;12.45;1.88;;;5.80;99.90;;;;;;5092368;28;20042;-66
2021/10/23 06:13:18;;;;;;;8.90;1.80;;;5.90;99.90;;;;;;5093401;28;20684;-66
2021/10/23 06:15:43;;;;;;;9.32;1.58;;;5.90;99.90;;;;;;5097921;28;20078;-67
2021/10/23 06:18:09;;;;;;;8.40;1.80;;;6.00;99.90;;;;;;5082481;28;21009;-66
2021/10/23 06:20:35;;;;;;;12.63;2.03;;;6.00;99.90;;;;;;5128519;27;20054;-67
2021/10/23 06:23:01;;;;;;;15.13;2.20;;;6.10;99.90;;;;;;5096850;28;20047;-67
2021/10/23 06:25:26;;;;;;;14.07;1.90;;;6.10;99.90;;;;;;5077288;28;20044;-67
2021/10/23 06:27:52;;;;;;;9.68;1.48;;;6.20;99.90;;;;;;5096871;28;20085;-67
2021/10/23 06:30:18;;;;;;;9.07;1.73;;;6.20;99.90;;;;;;5096218;28;20174;-67
2021/10/23 06:32:52;;;;;;;8.50;1.85;;;6.20;99.90;;;;;;5101383;28;20114;-67
2021/10/23 06:35:19;;;;;;;8.85;1.60;;;6.20;99.90;;;;;;5096826;27;20114;-67
2021/10/23 06:37:45;;;;;;;12.65;2.70;;;6.20;99.90;;;;;;5096146;28;20098;-66
2021/10/23 06:40:12;;;;;;;11.95;1.70;;;6.30;99.90;;;;;;5101989;27;20043;-67
2021/10/23 06:42:39;;;;;;;13.15;1.90;;;6.20;99.90;;;;;;5133102;27;20040;-67
2021/10/23 06:45:07;;;;;;;12.85;1.20;;;6.30;99.90;;;;;;5102262;28;20040;-67
2021/10/23 06:47:33;;;;;;;14.32;1.92;;;6.40;99.90;;;;;;5098473;27;20065;-67
2021/10/23 06:49:58;;;;;;;21.80;3.28;;;6.40;99.90;;;;;;5102960;27;20477;-67
2021/10/23 06:52:25;;;;;;;12.27;2.17;;;6.50;99.90;;;;;;5099423;28;20038;-67
2021/10/23 06:54:52;;;;;;;16.30;2.15;;;6.50;99.90;;;;;;5096729;28;20040;-67
2021/10/23 06:57:18;;;;;;;12.70;1.77;;;6.50;99.90;;;;;;5098556;28;20085;-67
2021/10/23 06:59:43;;;;;;;9.45;1.45;;;6.60;99.90;;;;;;5096485;28;20055;-66
2021/10/23 07:02:09;;;;;;;11.43;1.58;;;6.60;99.90;;;;;;5129996;27;20043;-67
2021/10/23 07:04:34;;;;;;;8.38;1.75;;;6.70;99.90;;;;;;5101002;28;20131;-67
2021/10/23 07:07:00;;;;;;;14.57;1.70;;;6.70;99.90;;;;;;5098649;28;20047;-67
2021/10/23 07:09:26;;;;;;;8.85;1.13;;;6.80;99.90;;;;;;5095936;28;20039;-67
2021/10/23 07:11:51;;;;;;;8.63;1.10;;;6.90;99.90;;;;;;5095099;28;20036;-67
2021/10/23 07:14:18;;;;;;;13.27;1.70;;;7.00;99.90;;;;;;5094963;28;20651;-67
2021/10/23 07:16:44;;;;;;;10.52;1.73;;;7.00;99.90;;;;;;5097064;27;20040;-67
2021/10/23 07:19:09;;;;;;;10.50;1.42;;;7.10;99.90;;;;;;5095033;28;20509;-67
2021/10/23 07:21:35;;;;;;;8.23;1.85;;;7.10;99.90;;;;;;5106066;28;20052;-67
2021/10/23 07:24:01;;;;;;;13.90;1.60;;;7.10;99.90;;;;;;5100247;28;20043;-68
2021/10/23 07:26:27;;;;;;;9.52;1.90;;;7.20;99.90;;;;;;5099679;28;20040;-67
2021/10/23 07:28:52;;;;;;;12.57;1.58;;;7.20;99.90;;;;;;5103836;27;20040;-66
2021/10/23 07:31:18;;;;;;;12.60;1.83;;;7.30;99.90;;;;;;5105183;27;20041;-67
2021/10/23 07:33:45;;;;;;;14.45;2.03;;;7.20;99.90;;;;;;5101211;28;20073;-66
2021/10/23 07:36:13;;;;;;;10.57;1.55;;;7.30;99.90;;;;;;5128386;27;20047;-67
2021/10/23 07:38:39;;;;;;;9.10;1.95;;;7.30;99.90;;;;;;5098789;27;20035;-67
2021/10/23 07:41:04;;;;;;;13.80;2.05;;;7.40;99.90;;;;;;5095668;28;20787;-66
2021/10/23 07:43:30;;;;;;;11.70;2.72;;;7.40;99.90;;;;;;5100549;27;20036;-67
2021/10/23 07:45:56;;;;;;;19.02;2.22;;;7.40;99.90;;;;;;5098002;28;20409;-67
2021/10/23 07:48:21;;;;;;;9.95;1.70;;;7.50;99.90;;;;;;5099131;27;20082;-67
2021/10/23 07:50:48;;;;;;;12.48;1.83;;;7.40;99.90;;;;;;5099038;28;20067;-66
2021/10/23 07:53:14;;;;;;;10.45;1.95;;;7.60;99.90;;;;;;5128819;27;20035;-67
2021/10/23 07:55:40;;;;;;;8.80;1.50;;;7.60;99.90;;;;;;5100354;28;20028;-67
2021/10/23 07:58:05;;;;;;;11.38;1.58;;;7.70;99.90;;;;;;5099525;28;20058;-67
2021/10/23 08:00:31;;;;;;;11.05;1.98;;;7.70;99.90;;;;;;5097072;28;20077;-66
2021/10/23 08:02:58;;;;;;;10.95;1.73;;;7.80;99.90;;;;;;5096116;27;20045;-67
2021/10/23 08:05:26;;;;;;;13.45;2.03;;;7.90;99.90;;;;;;5096490;28;20058;-67
2021/10/23 08:07:52;;;;;;;12.63;2.20;;;8.00;99.90;;;;;;5098469;28;20393;-67
2021/10/23 08:10:20;;;;;;;16.30;2.33;;;8.10;99.90;;;;;;5096282;27;20044;-67
2021/10/23 08:12:46;;;;;;;7.80;1.75;;;8.20;99.90;;;;;;5098308;28;20051;-67
2021/10/23 08:15:12;;;;;;;10.30;2.00;;;8.30;99.90;;;;;;5097438;27;20048;-67
2021/10/23 08:17:38;;;;;;;12.10;2.63;;;8.40;99.90;;;;;;5097408;27;20031;-67
2021/10/23 08:20:08;;;;;;;11.63;2.03;;;8.50;99.90;;;;;;5098314;28;20057;-67
2021/10/23 08:22:35;;;;;;;15.20;2.17;;;8.60;99.90;;;;;;5101292;28;20051;-67
2021/10/23 08:25:03;;;;;;;9.98;1.25;;;8.70;99.90;;;;;;5095031;27;20053;-67
2021/10/23 08:27:31;;;;;;;13.07;1.55;;;8.80;99.90;;;;;;5098633;27;20055;-67
2021/10/23 08:30:00;;;;;;;14.02;2.33;;;8.80;99.90;;;;;;5096206;28;20078;-67
2021/10/23 08:32:25;;;;;;;14.70;1.95;;;8.90;99.90;;;;;;5095621;28;20078;-67
2021/10/23 08:34:51;;;;;;;8.98;1.63;;;9.00;99.90;;;;;;5093538;28;20136;-67
2021/10/23 08:37:16;;;;;;;8.98;1.42;;;9.10;99.90;;;;;;5127940;27;20043;-67
2021/10/23 08:39:42;;;;;;;9.35;2.15;;;9.20;99.90;;;;;;5095587;28;20039;-67
2021/10/23 08:42:09;;;;;;;8.63;1.17;;;9.30;99.90;;;;;;5094286;28;20048;-67
2021/10/23 08:44:37;;;;;;;13.50;2.08;;;9.40;99.90;;;;;;5098064;28;20028;-67
2021/10/23 08:47:05;;;;;;;11.40;1.42;;;9.50;99.90;;;;;;5099065;28;20043;-66
2021/10/23 08:49:32;;;;;;;6.78;1.38;;;9.50;99.90;;;;;;5097991;28;20085;-67
2021/10/23 08:51:58;;;;;;;10.55;1.40;;;9.70;99.90;;;;;;5096873;28;20070;-67
2021/10/23 08:54:24;;;;;;;12.45;2.17;;;9.80;99.90;;;;;;5099443;27;20478;-67
2021/10/23 08:56:50;;;;;;;8.30;1.08;;;9.80;99.90;;;;;;5084257;28;20036;-67
2021/10/23 08:59:15;;;;;;;7.55;0.88;;;9.90;99.90;;;;;;5094193;28;20096;-67
2021/10/23 09:01:41;;;;;;;10.65;1.48;;;9.90;99.90;;;;;;5108393;27;20032;-67
2021/10/23 09:04:07;;;;;;;9.60;1.60;;;10.00;99.90;;;;;;5094386;27;20073;-67
2021/10/23 09:06:34;;;;;;;11.07;1.60;;;10.00;99.90;;;;;;5112222;27;20048;-67
2021/10/23 09:09:09;;;;;;;10.38;1.33;;;10.10;99.90;;;;;;5094369;28;20177;-67
2021/10/23 09:11:38;;;;;;;6.60;1.23;;;10.20;99.90;;;;;;5098082;28;20031;-67
2021/10/23 09:14:22;;;;;;;7.95;1.20;;;10.20;99.90;;;;;;5097409;28;20289;-67
2021/10/23 09:17:03;;;;;;;9.88;1.92;;;10.30;99.90;;;;;;5081883;28;20131;-67
2021/10/23 09:19:36;;;;;;;9.23;1.40;;;10.30;99.90;;;;;;5097448;28;20939;-67
2021/10/23 09:22:03;;;;;;;10.43;1.42;;;10.40;99.90;;;;;;5095230;28;20075;-67
2021/10/23 09:24:29;;;;;;;6.95;1.15;;;10.40;99.90;;;;;;5094151;28;20040;-67
2021/10/23 09:26:55;;;;;;;10.18;2.10;;;10.40;99.90;;;;;;5096365;28;20615;-67
2021/10/23 09:29:24;;;;;;;5.57;1.23;;;10.50;99.90;;;;;;5096363;28;20056;-67
2021/10/23 09:31:50;;;;;;;5.07;1.42;;;10.60;99.90;;;;;;5128337;27;20651;-67
2021/10/23 09:34:18;;;;;;;13.98;1.77;;;10.60;99.90;;;;;;5098357;28;20032;-67
2021/10/23 09:36:52;;;;;;;9.60;2.30;;;10.60;99.90;;;;;;5096409;28;20646;-67
2021/10/23 09:39:28;;;;;;;10.85;1.83;;;10.70;99.90;;;;;;5095179;28;20036;-67
2021/10/23 09:42:15;;;;;;;10.68;1.60;;;10.70;99.90;;;;;;5098129;28;20122;-67
2021/10/23 09:45:06;;;;;;;9.38;1.30;;;10.80;99.90;;;;;;5081651;28;20054;-67
2021/10/23 09:47:47;;;;;;;9.20;1.60;;;10.80;99.90;;;;;;5096022;28;20614;-67
2021/10/23 09:50:14;;;;;;;7.25;1.35;;;10.90;99.90;;;;;;5096841;28;20032;-67
2021/10/23 09:53:05;;;;;;;8.80;2.38;;;11.00;99.90;;;;;;5095928;28;20032;-67
2021/10/23 09:55:34;;;;;;;7.45;1.33;;;11.00;99.90;;;;;;5099612;28;20035;-67
2021/10/23 09:58:14;;;;;;;11.48;1.98;;;11.10;99.90;;;;;;5093788;28;20043;-67
2021/10/23 10:00:41;;;;;;;8.23;1.35;;;11.10;99.90;;;;;;5104037;28;20048;-67
2021/10/23 10:03:08;;;;;;;5.72;1.38;;;11.10;99.90;;;;;;5097528;28;20043;-67
2021/10/23 10:05:34;;;;;;;8.73;1.45;;;11.20;99.90;;;;;;5099715;28;20134;-67
2021/10/23 10:08:07;;;;;;;16.52;1.50;;;11.30;99.90;;;;;;5100358;27;20053;-66
2021/10/23 10:10:43;;;;;;;8.45;1.42;;;11.20;99.90;;;;;;5130996;27;20130;-67
2021/10/23 10:13:11;;;;;;;9.57;1.52;;;11.30;99.90;;;;;;5101816;27;20491;-66
2021/10/23 10:15:38;;;;;;;13.50;1.60;;;11.40;99.90;;;;;;5096910;27;20040;-66
2021/10/23 10:18:05;;;;;;;15.82;1.38;;;11.40;99.90;;;;;;5098269;28;20040;-67
2021/10/23 10:20:37;;;;;;;6.05;1.60;;;11.40;99.90;;;;;;5099019;28;20150;-66
2021/10/23 10:23:10;;;;;;;11.30;1.75;;;11.50;99.90;;;;;;5101869;28;20078;-66
2021/10/23 10:25:36;;;;;;;11.82;1.55;;;11.50;99.90;;;;;;5106616;28;20117;-67
2021/10/23 10:28:28;;;;;;;8.20;1.20;;;11.50;99.90;;;;;;5106565;27;20128;-67
2021/10/23 10:30:58;;;;;;;13.30;1.55;;;11.50;99.90;;;;;;5103126;28;20123;-67
2021/10/23 10:33:42;;;;;;;12.50;1.48;;;11.50;99.90;;;;;;5087979;28;20059;-67
2021/10/23 10:36:17;;;;;;;9.52;1.42;;;11.50;99.90;;;;;;5135569;27;20043;-67
2021/10/23 10:44:13;;;;;;;8.38;1.10;;;11.50;99.90;;;;;;5105304;27;20047;-67
2021/10/23 10:46:58;;;;;;;14.70;2.53;;;11.50;99.90;;;;;;5103487;28;20753;-67
2021/10/23 10:49:42;;;;;;;11.95;0.93;;;11.50;99.90;;;;;;5099374;27;20084;-66
2021/10/23 10:52:49;;;;;;;12.80;2.17;;;11.50;99.90;;;;;;5105259;28;20481;-66
2021/10/23 10:55:17;;;;;;;7.65;1.23;;;11.50;99.90;;;;;;5103694;28;20079;-66
2021/10/23 10:58:06;;;;;;;9.65;1.52;;;11.50;99.90;;;;;;5105006;28;20043;-66
2021/10/23 11:00:48;;;;;;;7.38;1.23;;;11.50;99.90;;;;;;5104785;27;20436;-67
2021/10/23 11:03:37;;;;;;;6.63;1.45;;;11.50;99.90;;;;;;5131188;27;20119;-66
2021/10/23 11:06:27;;;;;;;7.50;1.63;;;11.50;99.90;;;;;;5106828;28;20036;-67
2021/10/23 11:09:11;;;;;;;13.70;2.22;;;11.50;99.90;;;;;;5106364;27;20898;-67
2021/10/23 11:11:42;;;;;;;7.40;1.30;;;11.50;99.90;;;;;;5106330;27;20039;-66
2021/10/23 11:14:09;;;;;;;12.60;2.33;;;11.50;99.90;;;;;;5105173;28;20155;-67
2021/10/23 11:16:37;;;;;;;7.13;1.58;;;11.60;99.90;;;;;;5100817;28;20075;-67
2021/10/23 11:19:03;;;;;;;6.47;1.33;;;11.60;99.90;;;;;;5101391;28;20032;-66
2021/10/23 11:21:31;;;;;;;8.15;1.92;;;11.60;99.90;;;;;;5128529;27;20327;-66
2021/10/23 11:23:57;;;;;;;9.82;1.95;;;11.70;99.90;;;;;;5105111;27;20466;-67
2021/10/23 11:26:23;;;;;;;6.45;2.17;;;11.80;99.90;;;;;;5106786;27;20059;-67
2021/10/23 11:28:49;;;;;;;11.80;1.25;;;11.80;99.90;;;;;;5110373;27;20086;-66
2021/10/23 11:31:21;;;;;;;11.35;0.90;;;11.90;99.90;;;;;;5100756;28;20052;-66
2021/10/23 11:33:48;;;;;;;5.07;1.52;;;11.90;99.90;;;;;;5132096;27;20127;-67
2021/10/23 11:36:16;;;;;;;12.10;3.20;;;11.90;99.90;;;;;;5101891;27;20059;-66
2021/10/23 11:38:45;;;;;;;6.28;1.50;;;11.90;99.90;;;;;;5132141;27;20032;-66
2021/10/23 11:41:11;;;;;;;10.48;1.58;;;11.90;99.90;;;;;;5102700;28;20052;-67
2021/10/23 11:43:38;;;;;;;5.60;1.20;;;12.00;99.90;;;;;;5104490;27;20050;-66
2021/10/23 11:46:07;;;;;;;13.07;1.55;;;12.00;99.90;;;;;;5101804;28;20750;-66
2021/10/23 11:48:34;;;;;;;9.60;2.05;;;12.00;99.90;;;;;;5120132;27;20126;-66
2021/10/23 11:51:00;;;;;;;8.05;1.58;;;12.00;99.90;;;;;;5104685;27;20058;-66
2021/10/23 11:53:30;;;;;;;8.82;1.67;;;12.00;99.90;;;;;;5083378;28;20039;-66
2021/10/23 11:56:03;;;;;;;7.43;1.25;;;12.10;99.90;;;;;;5104628;27;20074;-66
2021/10/23 11:58:34;;;;;;;10.35;1.30;;;12.20;99.90;;;;;;5132090;27;20613;-66
2021/10/23 12:01:06;;;;;;;15.27;1.52;;;12.10;99.90;;;;;;5102124;28;20130;-66
2021/10/23 12:03:37;;;;;;;5.93;1.23;;;12.20;99.90;;;;;;5100403;28;20525;-66
2021/10/23 12:06:22;;;;;;;10.25;1.65;;;12.20;99.90;;;;;;5099502;28;20079;-69
2021/10/23 12:08:53;;;;;;;10.13;1.55;;;12.20;99.90;;;;;;5129487;27;20048;-69
2021/10/23 12:11:20;;;;;;;10.05;1.38;;;12.20;99.90;;;;;;5101491;27;20170;-70
2021/10/23 12:14:05;;;;;;;10.68;1.23;;;12.10;99.90;;;;;;5103591;27;20054;-72
2021/10/23 12:16:38;;;;;;;8.95;1.50;;;12.20;99.90;;;;;;5102760;28;20043;-67
2021/10/23 12:19:15;;;;;;;19.52;1.58;;;12.20;99.90;;;;;;5103328;28;20042;-69
2021/10/23 12:21:46;;;;;;;7.25;1.38;;;12.20;99.90;;;;;;5104689;28;20092;-67
2021/10/23 12:24:23;;;;;;;8.77;1.30;;;12.20;99.90;;;;;;5102172;28;20072;-67
2021/10/23 12:27:02;;;;;;;9.27;0.93;;;12.20;99.90;;;;;;5113988;27;20054;-66
2021/10/23 12:29:33;;;;;;;15.30;2.13;;;12.20;99.90;;;;;;5101558;28;20049;-66
2021/10/23 12:32:21;;;;;;;10.57;1.17;;;12.20;99.90;;;;;;5102423;27;20477;-66
2021/10/23 12:34:49;;;;;;;7.00;0.90;;;12.20;99.90;;;;;;5098285;28;20048;-66
2021/10/23 12:37:27;;;;;;;7.28;1.00;;;12.20;99.90;;;;;;5099865;28;20042;-66
2021/10/23 12:40:05;;;;;;;10.95;0.93;;;12.10;99.90;;;;;;5105619;27;20044;-66
2021/10/23 12:42:31;;;;;;;6.47;0.98;;;12.10;99.90;;;;;;5105330;27;20907;-66
2021/10/23 12:44:57;;;;;;;7.50;1.10;;;12.00;99.90;;;;;;5105144;27;20366;-66
2021/10/23 12:47:22;;;;;;;6.18;1.70;;;12.10;99.90;;;;;;5102607;27;20054;-66
2021/10/23 12:49:48;;;;;;;9.55;1.65;;;12.10;99.90;;;;;;5107459;28;20039;-66
2021/10/23 12:52:13;;;;;;;11.43;1.48;;;12.00;99.90;;;;;;5102631;27;20039;-74
2021/10/23 12:54:39;;;;;;;7.85;1.40;;;12.00;99.90;;;;;;5105530;28;20042;-72
2021/10/23 12:57:05;;;;;;;7.68;1.00;;;12.00;99.90;;;;;;5106325;28;20119;-72
2021/10/23 12:59:30;;;;;;;8.73;1.20;;;12.00;99.90;;;;;;5107239;27;20036;-72